Terminal Aerodrome Forecast
Issued by NWS

Home | Current Version | Previous Version | Text Only | Print | Product List | Glossary On
Versions: 1 2 3 4 5 6 7 8 9 10 11 12 13 14 15 16 17
000
FTUS46 KLOX 011801 AAA
TAFVNY
TAF AMD
KVNY 011801Z 0118/0218 16006KT P6SM OVC025
     FM011900 16009KT P6SM SCT030
     FM020700 VRB03KT P6SM OVC015
     FM021730 16007KT P6SM SCT030=

USA.gov is the U.S. government's official web portal to all federal, state and local government web resources and services.